sensor_id;sensor_type;location;lat;lon;timestamp;pressure;altitude;pressure_sealevel;temperature;humidity
36748;BME280;22716;51.556;5.080;2023-06-24T00:01:56;101759.06;;;21.62;83.96
36748;BME280;22716;51.556;5.080;2023-06-24T00:04:23;101755.75;;;21.57;83.73
36748;BME280;22716;51.556;5.080;2023-06-24T00:06:50;101762.78;;;21.58;82.50
36748;BME280;22716;51.556;5.080;2023-06-24T00:09:18;101769.06;;;21.57;82.16
36748;BME280;22716;51.556;5.080;2023-06-24T00:11:46;101763.91;;;21.53;81.37
36748;BME280;22716;51.556;5.080;2023-06-24T00:14:13;101765.03;;;21.47;81.38
36748;BME280;22716;51.556;5.080;2023-06-24T00:16:40;101763.53;;;21.40;80.51
36748;BME280;22716;51.556;5.080;2023-06-24T00:19:07;101770.69;;;21.40;80.45
36748;BME280;22716;51.556;5.080;2023-06-24T00:21:34;101754.06;;;21.33;79.89
36748;BME280;22716;51.556;5.080;2023-06-24T00:24:03;101757.41;;;21.38;79.13
36748;BME280;22716;51.556;5.080;2023-06-24T00:26:30;101765.41;;;21.38;79.47
36748;BME280;22716;51.556;5.080;2023-06-24T00:28:59;101770.75;;;21.38;79.12
36748;BME280;22716;51.556;5.080;2023-06-24T00:31:26;101778.75;;;21.38;79.05
36748;BME280;22716;51.556;5.080;2023-06-24T00:33:53;101769.00;;;21.37;79.37
36748;BME280;22716;51.556;5.080;2023-06-24T00:36:20;101773.53;;;21.35;79.65
36748;BME280;22716;51.556;5.080;2023-06-24T00:38:47;101771.94;;;21.31;79.37
36748;BME280;22716;51.556;5.080;2023-06-24T00:41:16;101755.25;;;21.26;79.92
36748;BME280;22716;51.556;5.080;2023-06-24T00:43:44;101770.88;;;21.35;80.01
36748;BME280;22716;51.556;5.080;2023-06-24T00:46:12;101762.19;;;21.30;80.33
36748;BME280;22716;51.556;5.080;2023-06-24T00:48:39;101780.84;;;21.30;81.97
36748;BME280;22716;51.556;5.080;2023-06-24T00:51:06;101768.94;;;21.17;82.65
36748;BME280;22716;51.556;5.080;2023-06-24T00:53:33;101769.13;;;21.12;82.27
36748;BME280;22716;51.556;5.080;2023-06-24T00:55:59;101771.91;;;21.09;82.25
36748;BME280;22716;51.556;5.080;2023-06-24T00:58:32;101777.38;;;21.05;82.14
36748;BME280;22716;51.556;5.080;2023-06-24T01:01:02;101776.56;;;21.03;81.74
36748;BME280;22716;51.556;5.080;2023-06-24T01:03:30;101771.47;;;20.97;81.32
36748;BME280;22716;51.556;5.080;2023-06-24T01:05:58;101768.00;;;20.95;81.12
36748;BME280;22716;51.556;5.080;2023-06-24T01:08:25;101772.41;;;20.96;81.50
36748;BME280;22716;51.556;5.080;2023-06-24T01:10:51;101763.56;;;20.95;81.55
36748;BME280;22716;51.556;5.080;2023-06-24T01:13:18;101770.91;;;20.89;82.14
36748;BME280;22716;51.556;5.080;2023-06-24T01:15:45;101753.53;;;20.79;82.17
36748;BME280;22716;51.556;5.080;2023-06-24T01:18:21;101756.94;;;20.82;81.67
36748;BME280;22716;51.556;5.080;2023-06-24T01:20:56;101756.84;;;20.85;82.17
36748;BME280;22716;51.556;5.080;2023-06-24T01:26:50;101752.72;;;20.77;82.35
36748;BME280;22716;51.556;5.080;2023-06-24T01:29:36;101753.50;;;20.80;82.44
36748;BME280;22716;51.556;5.080;2023-06-24T01:32:15;101746.53;;;20.76;82.57
36748;BME280;22716;51.556;5.080;2023-06-24T01:34:48;101737.06;;;20.69;83.16
36748;BME280;22716;51.556;5.080;2023-06-24T01:37:24;101740.34;;;20.76;83.91
36748;BME280;22716;51.556;5.080;2023-06-24T01:39:57;101749.28;;;20.75;84.19
36748;BME280;22716;51.556;5.080;2023-06-24T01:42:32;101745.72;;;20.74;85.01
36748;BME280;22716;51.556;5.080;2023-06-24T01:45:01;101743.97;;;20.73;85.21
36748;BME280;22716;51.556;5.080;2023-06-24T01:47:29;101741.31;;;20.73;85.81
36748;BME280;22716;51.556;5.080;2023-06-24T01:49:58;101745.78;;;20.73;86.16
36748;BME280;22716;51.556;5.080;2023-06-24T01:52:29;101741.63;;;20.65;85.84
36748;BME280;22716;51.556;5.080;2023-06-24T01:54:59;101738.09;;;20.65;86.23
36748;BME280;22716;51.556;5.080;2023-06-24T01:57:27;101739.19;;;20.59;86.77
36748;BME280;22716;51.556;5.080;2023-06-24T01:59:56;101727.78;;;20.56;86.80
36748;BME280;22716;51.556;5.080;2023-06-24T02:02:25;101730.41;;;20.57;87.41
36748;BME280;22716;51.556;5.080;2023-06-24T02:04:55;101733.22;;;20.53;87.87
36748;BME280;22716;51.556;5.080;2023-06-24T02:07:23;101710.38;;;20.47;88.15
36748;BME280;22716;51.556;5.080;2023-06-24T02:09:53;101721.00;;;20.47;88.93
36748;BME280;22716;51.556;5.080;2023-06-24T02:12:22;101719.28;;;20.46;89.16
36748;BME280;22716;51.556;5.080;2023-06-24T02:14:51;101714.94;;;20.44;90.16
36748;BME280;22716;51.556;5.080;2023-06-24T02:17:19;101726.78;;;20.35;90.99
36748;BME280;22716;51.556;5.080;2023-06-24T02:19:48;101728.75;;;20.30;92.81
36748;BME280;22716;51.556;5.080;2023-06-24T02:22:17;101731.47;;;20.29;93.73
36748;BME280;22716;51.556;5.080;2023-06-24T02:24:45;101717.50;;;20.22;94.80
36748;BME280;22716;51.556;5.080;2023-06-24T02:27:12;101721.84;;;20.25;94.80
36748;BME280;22716;51.556;5.080;2023-06-24T02:29:40;101709.63;;;20.19;95.70
36748;BME280;22716;51.556;5.080;2023-06-24T02:32:08;101718.44;;;20.20;96.05
36748;BME280;22716;51.556;5.080;2023-06-24T02:34:35;101719.56;;;20.14;96.78
36748;BME280;22716;51.556;5.080;2023-06-24T02:37:03;101725.06;;;20.09;97.62
36748;BME280;22716;51.556;5.080;2023-06-24T02:39:31;101725.16;;;20.06;97.60
36748;BME280;22716;51.556;5.080;2023-06-24T02:41:57;101720.94;;;20.01;98.49
36748;BME280;22716;51.556;5.080;2023-06-24T02:44:24;101725.44;;;19.99;98.69
36748;BME280;22716;51.556;5.080;2023-06-24T02:46:52;101728.25;;;19.94;99.13
36748;BME280;22716;51.556;5.080;2023-06-24T02:49:20;101722.25;;;19.88;99.56
36748;BME280;22716;51.556;5.080;2023-06-24T02:51:48;101720.88;;;19.78;99.88
36748;BME280;22716;51.556;5.080;2023-06-24T02:54:15;101733.59;;;19.68;100.00
36748;BME280;22716;51.556;5.080;2023-06-24T02:56:44;101721.63;;;19.55;100.00
36748;BME280;22716;51.556;5.080;2023-06-24T02:59:10;101732.22;;;19.56;100.00
36748;BME280;22716;51.556;5.080;2023-06-24T03:01:38;101728.88;;;19.51;100.00
36748;BME280;22716;51.556;5.080;2023-06-24T03:04:10;101726.41;;;19.45;100.00
36748;BME280;22716;51.556;5.080;2023-06-24T03:06:37;101730.66;;;19.51;100.00
36748;BME280;22716;51.556;5.080;2023-06-24T03:09:05;101738.66;;;19.49;100.00
36748;BME280;22716;51.556;5.080;2023-06-24T03:11:40;101739.59;;;19.48;100.00
36748;BME280;22716;51.556;5.080;2023-06-24T03:14:08;101730.94;;;19.42;100.00
36748;BME280;22716;51.556;5.080;2023-06-24T03:16:36;101739.91;;;19.39;100.00
36748;BME280;22716;51.556;5.080;2023-06-24T03:19:04;101743.44;;;19.38;100.00
36748;BME280;22716;51.556;5.080;2023-06-24T03:21:31;101734.56;;;19.39;99.94
36748;BME280;22716;51.556;5.080;2023-06-24T03:23:58;101737.22;;;19.38;99.97
36748;BME280;22716;51.556;5.080;2023-06-24T03:26:31;101736.50;;;19.34;99.97
36748;BME280;22716;51.556;5.080;2023-06-24T03:28:58;101728.75;;;19.27;99.61
36748;BME280;22716;51.556;5.080;2023-06-24T03:31:26;101733.06;;;19.31;99.84
36748;BME280;22716;51.556;5.080;2023-06-24T03:33:53;101733.94;;;19.31;98.91
36748;BME280;22716;51.556;5.080;2023-06-24T03:36:20;101729.72;;;19.24;98.72
36748;BME280;22716;51.556;5.080;2023-06-24T03:38:47;101737.06;;;19.16;97.77
36748;BME280;22716;51.556;5.080;2023-06-24T03:41:13;101732.81;;;19.11;97.51
36748;BME280;22716;51.556;5.080;2023-06-24T03:43:40;101738.88;;;19.14;96.90
36748;BME280;22716;51.556;5.080;2023-06-24T03:46:09;101738.78;;;19.17;96.32
36748;BME280;22716;51.556;5.080;2023-06-24T03:48:37;101730.09;;;19.12;96.44
36748;BME280;22716;51.556;5.080;2023-06-24T03:51:04;101735.31;;;19.15;95.98
36748;BME280;22716;51.556;5.080;2023-06-24T03:53:31;101732.66;;;19.15;95.73
36748;BME280;22716;51.556;5.080;2023-06-24T03:55:58;101732.66;;;19.15;95.43
36748;BME280;22716;51.556;5.080;2023-06-24T03:58:26;101737.94;;;19.17;94.92
36748;BME280;22716;51.556;5.080;2023-06-24T04:00:53;101733.63;;;19.13;95.03
36748;BME280;22716;51.556;5.080;2023-06-24T04:03:23;101730.16;;;19.11;95.66
36748;BME280;22716;51.556;5.080;2023-06-24T04:05:54;101728.34;;;19.11;95.36
36748;BME280;22716;51.556;5.080;2023-06-24T04:08:21;101734.53;;;19.12;95.55
36748;BME280;22716;51.556;5.080;2023-06-24T04:10:50;101739.91;;;19.10;95.72
36748;BME280;22716;51.556;5.080;2023-06-24T04:13:17;101742.69;;;19.07;96.57
36748;BME280;22716;51.556;5.080;2023-06-24T04:15:44;101717.47;;;18.92;96.44
36748;BME280;22716;51.556;5.080;2023-06-24T04:18:11;101742.50;;;19.12;96.47
36748;BME280;22716;51.556;5.080;2023-06-24T04:20:38;101742.69;;;19.06;96.72
36748;BME280;22716;51.556;5.080;2023-06-24T04:23:06;101742.56;;;19.10;97.38
36748;BME280;22716;51.556;5.080;2023-06-24T04:25:34;101743.38;;;19.12;97.32
36748;BME280;22716;51.556;5.080;2023-06-24T04:28:01;101746.03;;;19.12;97.02
36748;BME280;22716;51.556;5.080;2023-06-24T04:30:30;101750.53;;;19.10;97.43
36748;BME280;22716;51.556;5.080;2023-06-24T04:32:57;101746.94;;;19.11;97.53
36748;BME280;22716;51.556;5.080;2023-06-24T04:35:24;101747.00;;;19.10;98.04
36748;BME280;22716;51.556;5.080;2023-06-24T04:37:50;101747.91;;;19.09;98.78
36748;BME280;22716;51.556;5.080;2023-06-24T04:40:18;101744.25;;;19.13;98.87
36748;BME280;22716;51.556;5.080;2023-06-24T04:42:45;101743.25;;;19.17;99.72
36748;BME280;22716;51.556;5.080;2023-06-24T04:45:12;101747.63;;;19.18;99.36
36748;BME280;22716;51.556;5.080;2023-06-24T04:47:39;101745.03;;;19.16;99.34
36748;BME280;22716;51.556;5.080;2023-06-24T04:50:07;101749.28;;;19.22;99.56
36748;BME280;22716;51.556;5.080;2023-06-24T04:52:36;101741.06;;;19.29;100.00
36748;BME280;22716;51.556;5.080;2023-06-24T04:55:04;101747.94;;;19.36;99.76
36748;BME280;22716;51.556;5.080;2023-06-24T04:57:32;101749.53;;;19.42;99.17
36748;BME280;22716;51.556;5.080;2023-06-24T05:00:00;101755.34;;;19.54;99.21
36748;BME280;22716;51.556;5.080;2023-06-24T05:02:26;101748.22;;;19.81;97.41
36748;BME280;22716;51.556;5.080;2023-06-24T05:04:53;101763.88;;;20.15;95.98
36748;BME280;22716;51.556;5.080;2023-06-24T05:07:20;101765.22;;;20.28;95.12
36748;BME280;22716;51.556;5.080;2023-06-24T05:09:48;101758.38;;;20.20;94.90
36748;BME280;22716;51.556;5.080;2023-06-24T05:12:16;101757.09;;;20.06;94.64
36748;BME280;22716;51.556;5.080;2023-06-24T05:14:49;101754.59;;;20.02;94.52
36748;BME280;22716;51.556;5.080;2023-06-24T05:17:17;101751.94;;;20.02;94.62
36748;BME280;22716;51.556;5.080;2023-06-24T05:19:44;101761.59;;;20.04;94.42
36748;BME280;22716;51.556;5.080;2023-06-24T05:22:12;101763.09;;;20.11;94.49
36748;BME280;22716;51.556;5.080;2023-06-24T05:24:38;101761.09;;;20.18;93.85
36748;BME280;22716;51.556;5.080;2023-06-24T05:27:07;101761.91;;;20.20;94.08
36748;BME280;22716;51.556;5.080;2023-06-24T05:29:34;101741.78;;;20.13;94.38
36748;BME280;22716;51.556;5.080;2023-06-24T05:32:04;101745.22;;;20.17;94.27
36748;BME280;22716;51.556;5.080;2023-06-24T05:34:31;101752.03;;;20.25;93.87
36748;BME280;22716;51.556;5.080;2023-06-24T05:36:59;101752.53;;;20.35;93.55
36748;BME280;22716;51.556;5.080;2023-06-24T05:39:26;101752.53;;;20.58;92.42
36748;BME280;22716;51.556;5.080;2023-06-24T05:41:53;101757.63;;;20.87;91.22
36748;BME280;22716;51.556;5.080;2023-06-24T05:44:20;101759.34;;;20.90;91.03
36748;BME280;22716;51.556;5.080;2023-06-24T05:46:48;101763.06;;;20.84;90.85
36748;BME280;22716;51.556;5.080;2023-06-24T05:49:16;101755.84;;;20.88;90.41
36748;BME280;22716;51.556;5.080;2023-06-24T05:51:43;101764.44;;;20.96;89.70
36748;BME280;22716;51.556;5.080;2023-06-24T05:54:09;101747.50;;;20.97;89.06
36748;BME280;22716;51.556;5.080;2023-06-24T05:56:37;101764.13;;;21.03;88.49
36748;BME280;22716;51.556;5.080;2023-06-24T05:59:04;101759.53;;;21.07;88.07
36748;BME280;22716;51.556;5.080;2023-06-24T06:01:31;101760.94;;;21.17;87.28
36748;BME280;22716;51.556;5.080;2023-06-24T06:03:57;101750.41;;;21.14;87.54
36748;BME280;22716;51.556;5.080;2023-06-24T06:06:25;101761.88;;;21.16;86.52
36748;BME280;22716;51.556;5.080;2023-06-24T06:08:52;101758.63;;;21.08;86.62
36748;BME280;22716;51.556;5.080;2023-06-24T06:11:19;101763.84;;;21.11;86.72
36748;BME280;22716;51.556;5.080;2023-06-24T06:13:46;101764.31;;;21.22;86.59
36748;BME280;22716;51.556;5.080;2023-06-24T06:16:12;101766.19;;;21.40;85.81
36748;BME280;22716;51.556;5.080;2023-06-24T06:18:39;101771.66;;;21.37;85.90
36748;BME280;22716;51.556;5.080;2023-06-24T06:21:06;101770.50;;;21.44;85.86
36748;BME280;22716;51.556;5.080;2023-06-24T06:23:34;101774.66;;;21.51;85.48
36748;BME280;22716;51.556;5.080;2023-06-24T06:26:01;101774.41;;;21.57;84.89
36748;BME280;22716;51.556;5.080;2023-06-24T06:28:27;101770.88;;;21.57;84.75
36748;BME280;22716;51.556;5.080;2023-06-24T06:30:54;101784.53;;;21.69;84.35
36748;BME280;22716;51.556;5.080;2023-06-24T06:33:22;101792.16;;;21.78;84.17
36748;BME280;22716;51.556;5.080;2023-06-24T06:35:49;101774.50;;;21.98;83.57
36748;BME280;22716;51.556;5.080;2023-06-24T06:38:16;101788.50;;;22.03;83.28
36748;BME280;22716;51.556;5.080;2023-06-24T06:40:44;101785.78;;;22.04;82.82
36748;BME280;22716;51.556;5.080;2023-06-24T06:43:11;101785.44;;;22.12;82.64
36748;BME280;22716;51.556;5.080;2023-06-24T06:45:37;101787.97;;;22.15;82.36
36748;BME280;22716;51.556;5.080;2023-06-24T06:48:05;101784.09;;;22.22;81.92
36748;BME280;22716;51.556;5.080;2023-06-24T06:50:33;101784.25;;;22.19;82.58
36748;BME280;22716;51.556;5.080;2023-06-24T06:53:00;101788.44;;;22.24;81.68
36748;BME280;22716;51.556;5.080;2023-06-24T06:55:27;101786.78;;;22.22;82.62
36748;BME280;22716;51.556;5.080;2023-06-24T06:57:55;101791.78;;;22.29;82.41
36748;BME280;22716;51.556;5.080;2023-06-24T07:00:22;101791.25;;;22.21;82.77
36748;BME280;22716;51.556;5.080;2023-06-24T07:02:48;101792.16;;;22.20;82.89
36748;BME280;22716;51.556;5.080;2023-06-24T07:05:15;101801.22;;;22.16;82.95
36748;BME280;22716;51.556;5.080;2023-06-24T07:07:43;101803.31;;;22.30;82.90
36748;BME280;22716;51.556;5.080;2023-06-24T07:10:11;101793.13;;;22.40;82.28
36748;BME280;22716;51.556;5.080;2023-06-24T07:12:38;101797.31;;;22.45;81.77
36748;BME280;22716;51.556;5.080;2023-06-24T07:15:07;101799.03;;;22.46;82.62
36748;BME280;22716;51.556;5.080;2023-06-24T07:17:34;101799.47;;;22.56;81.71
36748;BME280;22716;51.556;5.080;2023-06-24T07:20:01;101803.81;;;22.58;81.59
36748;BME280;22716;51.556;5.080;2023-06-24T07:22:28;101801.69;;;22.66;81.32
36748;BME280;22716;51.556;5.080;2023-06-24T07:24:56;101804.22;;;22.69;81.27
36748;BME280;22716;51.556;5.080;2023-06-24T07:27:23;101803.16;;;22.73;82.11
36748;BME280;22716;51.556;5.080;2023-06-24T07:29:49;101802.75;;;22.82;80.95
36748;BME280;22716;51.556;5.080;2023-06-24T07:32:17;101805.00;;;22.92;80.67
36748;BME280;22716;51.556;5.080;2023-06-24T07:34:44;101810.97;;;22.97;79.93
36748;BME280;22716;51.556;5.080;2023-06-24T07:37:11;101808.91;;;23.03;79.02
36748;BME280;22716;51.556;5.080;2023-06-24T07:39:38;101800.66;;;23.08;79.18
36748;BME280;22716;51.556;5.080;2023-06-24T07:42:05;101806.66;;;23.13;79.81
36748;BME280;22716;51.556;5.080;2023-06-24T07:44:32;101804.34;;;23.24;79.32
36748;BME280;22716;51.556;5.080;2023-06-24T07:46:59;101796.91;;;23.30;78.04
36748;BME280;22716;51.556;5.080;2023-06-24T07:49:27;101803.56;;;23.40;78.27
36748;BME280;22716;51.556;5.080;2023-06-24T07:51:53;101799.72;;;23.46;77.60
36748;BME280;22716;51.556;5.080;2023-06-24T07:54:20;101800.53;;;23.48;77.33
36748;BME280;22716;51.556;5.080;2023-06-24T07:56:47;101797.84;;;23.48;76.91
36748;BME280;22716;51.556;5.080;2023-06-24T07:59:14;101801.94;;;23.55;76.85
36748;BME280;22716;51.556;5.080;2023-06-24T08:01:40;101799.69;;;23.65;76.18
36748;BME280;22716;51.556;5.080;2023-06-24T08:04:07;101798.03;;;23.62;75.78
36748;BME280;22716;51.556;5.080;2023-06-24T08:06:35;101801.13;;;23.72;75.42
36748;BME280;22716;51.556;5.080;2023-06-24T08:09:02;101798.66;;;23.67;74.64
36748;BME280;22716;51.556;5.080;2023-06-24T08:11:29;101798.50;;;23.70;74.90
36748;BME280;22716;51.556;5.080;2023-06-24T08:13:56;101798.50;;;23.70;74.27
36748;BME280;22716;51.556;5.080;2023-06-24T08:16:23;101798.34;;;23.73;73.46
36748;BME280;22716;51.556;5.080;2023-06-24T08:18:49;101796.75;;;23.69;73.94
36748;BME280;22716;51.556;5.080;2023-06-24T08:21:16;101803.06;;;23.68;73.40
36748;BME280;22716;51.556;5.080;2023-06-24T08:23:45;101795.06;;;23.68;72.83
36748;BME280;22716;51.556;5.080;2023-06-24T08:26:12;101799.44;;;23.69;72.21
36748;BME280;22716;51.556;5.080;2023-06-24T08:28:39;101794.66;;;23.76;72.09
36748;BME280;22716;51.556;5.080;2023-06-24T08:31:05;101778.91;;;23.70;71.60
36748;BME280;22716;51.556;5.080;2023-06-24T08:33:32;101785.28;;;23.84;71.78
36748;BME280;22716;51.556;5.080;2023-06-24T08:35:59;101784.25;;;23.87;71.38
36748;BME280;22716;51.556;5.080;2023-06-24T08:38:26;101782.94;;;23.95;70.92
36748;BME280;22716;51.556;5.080;2023-06-24T08:40:55;101785.44;;;23.98;69.59
36748;BME280;22716;51.556;5.080;2023-06-24T08:43:22;101777.25;;;24.02;68.98
36748;BME280;22716;51.556;5.080;2023-06-24T08:45:48;101782.63;;;24.02;68.89
36748;BME280;22716;51.556;5.080;2023-06-24T08:48:16;101783.34;;;24.05;68.51
36748;BME280;22716;51.556;5.080;2023-06-24T08:50:48;101787.66;;;24.08;69.33
36748;BME280;22716;51.556;5.080;2023-06-24T08:53:18;101782.72;;;24.17;69.65
36748;BME280;22716;51.556;5.080;2023-06-24T08:55:49;101778.00;;;24.22;69.25
36748;BME280;22716;51.556;5.080;2023-06-24T08:58:21;101775.41;;;24.21;69.86
36748;BME280;22716;51.556;5.080;2023-06-24T09:00:48;101775.97;;;24.27;70.12
36748;BME280;22716;51.556;5.080;2023-06-24T09:03:15;101773.13;;;24.30;69.39
36748;BME280;22716;51.556;5.080;2023-06-24T09:05:41;101780.91;;;24.35;67.76
36748;BME280;22716;51.556;5.080;2023-06-24T09:08:09;101777.34;;;24.34;67.13
36748;BME280;22716;51.556;5.080;2023-06-24T09:10:37;101780.84;;;24.36;65.99
36748;BME280;22716;51.556;5.080;2023-06-24T09:13:05;101776.25;;;24.38;66.30
36748;BME280;22716;51.556;5.080;2023-06-24T09:15:36;101782.16;;;24.45;66.28
36748;BME280;22716;51.556;5.080;2023-06-24T09:18:04;101773.88;;;24.49;65.72
36748;BME280;22716;51.556;5.080;2023-06-24T09:20:32;101770.97;;;24.54;65.10
36748;BME280;22716;51.556;5.080;2023-06-24T09:23:04;101774.03;;;24.46;65.46
36748;BME280;22716;51.556;5.080;2023-06-24T09:25:31;101762.44;;;24.46;66.59
36748;BME280;22716;51.556;5.080;2023-06-24T09:27:59;101767.47;;;24.52;65.63
36748;BME280;22716;51.556;5.080;2023-06-24T09:30:26;101765.41;;;24.57;64.54
36748;BME280;22716;51.556;5.080;2023-06-24T09:32:55;101765.34;;;24.59;64.17
36748;BME280;22716;51.556;5.080;2023-06-24T09:35:24;101765.72;;;24.68;63.45
36748;BME280;22716;51.556;5.080;2023-06-24T09:37:51;101759.22;;;24.72;63.83
36748;BME280;22716;51.556;5.080;2023-06-24T09:40:18;101762.22;;;24.83;64.24
36748;BME280;22716;51.556;5.080;2023-06-24T09:42:50;101762.91;;;24.87;65.20
36748;BME280;22716;51.556;5.080;2023-06-24T09:45:21;101761.97;;;24.88;65.01
36748;BME280;22716;51.556;5.080;2023-06-24T09:47:48;101753.16;;;24.86;64.25
36748;BME280;22716;51.556;5.080;2023-06-24T09:50:16;101751.75;;;24.94;63.57
36748;BME280;22716;51.556;5.080;2023-06-24T09:52:44;101739.13;;;24.96;63.48
36748;BME280;22716;51.556;5.080;2023-06-24T09:55:12;101752.19;;;25.02;63.86
36748;BME280;22716;51.556;5.080;2023-06-24T09:57:41;101743.44;;;24.99;63.57
36748;BME280;22716;51.556;5.080;2023-06-24T10:00:09;101748.22;;;25.10;62.85
36748;BME280;22716;51.556;5.080;2023-06-24T10:02:37;101752.88;;;25.06;61.79
36748;BME280;22716;51.556;5.080;2023-06-24T10:05:05;101745.38;;;25.13;60.62
36748;BME280;22716;51.556;5.080;2023-06-24T10:07:34;101745.63;;;25.08;60.01
36748;BME280;22716;51.556;5.080;2023-06-24T10:10:03;101754.78;;;25.04;60.30
36748;BME280;22716;51.556;5.080;2023-06-24T10:12:30;101741.81;;;25.12;60.20
36748;BME280;22716;51.556;5.080;2023-06-24T10:14:57;101744.75;;;25.23;60.09
36748;BME280;22716;51.556;5.080;2023-06-24T10:17:25;101743.00;;;25.22;60.28
36748;BME280;22716;51.556;5.080;2023-06-24T10:19:53;101740.59;;;25.18;59.90
36748;BME280;22716;51.556;5.080;2023-06-24T10:22:22;101746.13;;;25.15;59.27
36748;BME280;22716;51.556;5.080;2023-06-24T10:24:52;101747.88;;;25.16;59.93
36748;BME280;22716;51.556;5.080;2023-06-24T10:27:21;101739.38;;;25.23;60.04
36748;BME280;22716;51.556;5.080;2023-06-24T10:29:49;101747.84;;;25.31;59.92
36748;BME280;22716;51.556;5.080;2023-06-24T10:32:17;101733.50;;;25.32;58.89
36748;BME280;22716;51.556;5.080;2023-06-24T10:34:46;101737.91;;;25.33;58.99
36748;BME280;22716;51.556;5.080;2023-06-24T10:37:18;101741.72;;;25.29;59.20
36748;BME280;22716;51.556;5.080;2023-06-24T10:39:47;101716.88;;;25.26;59.07
36748;BME280;22716;51.556;5.080;2023-06-24T10:42:38;101737.34;;;25.42;58.46
36748;BME280;22716;51.556;5.080;2023-06-24T10:45:16;101732.44;;;25.35;58.46
36748;BME280;22716;51.556;5.080;2023-06-24T10:47:44;101731.56;;;25.34;59.00
36748;BME280;22716;51.556;5.080;2023-06-24T10:50:13;101730.34;;;25.40;58.15
36748;BME280;22716;51.556;5.080;2023-06-24T10:52:41;101733.72;;;25.43;57.52
36748;BME280;22716;51.556;5.080;2023-06-24T10:55:09;101730.19;;;25.43;57.32
36748;BME280;22716;51.556;5.080;2023-06-24T10:57:37;101725.47;;;25.48;56.91
36748;BME280;22716;51.556;5.080;2023-06-24T11:00:04;101728.81;;;25.51;56.25
36748;BME280;22716;51.556;5.080;2023-06-24T11:02:31;101723.25;;;25.54;56.54
36748;BME280;22716;51.556;5.080;2023-06-24T11:04:59;101730.69;;;25.65;56.33
36748;BME280;22716;51.556;5.080;2023-06-24T11:07:27;101724.16;;;25.69;55.87
36748;BME280;22716;51.556;5.080;2023-06-24T11:09:58;101722.00;;;25.76;55.93
36748;BME280;22716;51.556;5.080;2023-06-24T11:12:26;101712.69;;;25.81;55.78
36748;BME280;22716;51.556;5.080;2023-06-24T11:14:57;101707.25;;;25.83;55.23
36748;BME280;22716;51.556;5.080;2023-06-24T11:17:24;101719.06;;;25.94;55.36
36748;BME280;22716;51.556;5.080;2023-06-24T11:19:52;101714.97;;;26.03;54.93
36748;BME280;22716;51.556;5.080;2023-06-24T11:22:20;101711.22;;;26.05;54.51
36748;BME280;22716;51.556;5.080;2023-06-24T11:24:46;101708.72;;;26.02;54.03
36748;BME280;22716;51.556;5.080;2023-06-24T11:27:13;101713.72;;;26.08;53.76
36748;BME280;22716;51.556;5.080;2023-06-24T11:29:40;101704.16;;;26.18;53.29
36748;BME280;22716;51.556;5.080;2023-06-24T11:32:09;101694.78;;;26.26;52.78
36748;BME280;22716;51.556;5.080;2023-06-24T11:34:36;101702.06;;;26.38;51.77
36748;BME280;22716;51.556;5.080;2023-06-24T11:37:11;101694.50;;;26.44;51.65
36748;BME280;22716;51.556;5.080;2023-06-24T11:39:39;101679.44;;;26.42;51.80
36748;BME280;22716;51.556;5.080;2023-06-24T11:42:08;101695.06;;;26.35;51.10
36748;BME280;22716;51.556;5.080;2023-06-24T11:44:36;101701.13;;;26.39;51.08
36748;BME280;22716;51.556;5.080;2023-06-24T11:47:09;101690.06;;;26.57;49.88
36748;BME280;22716;51.556;5.080;2023-06-24T11:49:49;101693.22;;;26.64;48.88
36748;BME280;22716;51.556;5.080;2023-06-24T11:52:16;101693.34;;;26.62;47.97
36748;BME280;22716;51.556;5.080;2023-06-24T11:54:43;101689.56;;;26.65;48.64
36748;BME280;22716;51.556;5.080;2023-06-24T11:57:10;101682.81;;;26.72;48.54
36748;BME280;22716;51.556;5.080;2023-06-24T11:59:38;101691.47;;;26.77;48.98
36748;BME280;22716;51.556;5.080;2023-06-24T12:02:05;101688.31;;;26.85;48.33
36748;BME280;22716;51.556;5.080;2023-06-24T12:04:33;101684.38;;;26.90;47.66
36748;BME280;22716;51.556;5.080;2023-06-24T12:07:00;101687.13;;;27.03;47.52
36748;BME280;22716;51.556;5.080;2023-06-24T12:09:28;101683.75;;;27.26;46.78
36748;BME280;22716;51.556;5.080;2023-06-24T12:11:55;101681.34;;;27.36;47.20
36748;BME280;22716;51.556;5.080;2023-06-24T12:14:22;101681.38;;;27.48;46.75
36748;BME280;22716;51.556;5.080;2023-06-24T12:16:49;101687.00;;;27.58;46.52
36748;BME280;22716;51.556;5.080;2023-06-24T12:19:16;101682.28;;;27.61;46.32
36748;BME280;22716;51.556;5.080;2023-06-24T12:21:44;101674.44;;;27.71;46.33
36748;BME280;22716;51.556;5.080;2023-06-24T12:24:10;101677.47;;;27.79;45.20
36748;BME280;22716;51.556;5.080;2023-06-24T12:26:38;101669.06;;;27.96;45.19
36748;BME280;22716;51.556;5.080;2023-06-24T12:29:05;101667.16;;;28.11;44.33
36748;BME280;22716;51.556;5.080;2023-06-24T12:31:33;101670.81;;;28.22;44.00
36748;BME280;22716;51.556;5.080;2023-06-24T12:33:59;101657.00;;;28.27;44.31
36748;BME280;22716;51.556;5.080;2023-06-24T12:36:26;101653.44;;;28.39;42.97
36748;BME280;22716;51.556;5.080;2023-06-24T12:38:54;101654.16;;;28.54;42.83
36748;BME280;22716;51.556;5.080;2023-06-24T12:41:21;101652.22;;;28.56;43.64
36748;BME280;22716;51.556;5.080;2023-06-24T12:43:48;101651.81;;;28.49;43.25
36748;BME280;22716;51.556;5.080;2023-06-24T12:46:14;101650.72;;;28.64;43.41
36748;BME280;22716;51.556;5.080;2023-06-24T12:48:42;101650.84;;;28.86;42.34
36748;BME280;22716;51.556;5.080;2023-06-24T12:51:09;101652.31;;;29.03;42.07
36748;BME280;22716;51.556;5.080;2023-06-24T12:53:36;101652.91;;;29.07;41.80
36748;BME280;22716;51.556;5.080;2023-06-24T12:56:04;101651.50;;;29.14;41.15
36748;BME280;22716;51.556;5.080;2023-06-24T12:58:31;101651.09;;;29.31;40.99